Ship Status Report: callsign TAMOURE

sailwx.info

Track history (hours):
 
Tides and Currents Weather Stations Pressure Air Temp Water Temp Dewpoint Dewpoint Depression Visibility Wind Speed Wind Dir Waves Ship Positions

Callsign TAMOURE (name unknown)

Last reported at 2018-Jun-22 16:00 UTC. Time now 2018-Jun-22 16:44 UTC.
Position N 49°48' W 001°36'.

Barometer 1030.2 mb

Date/timePositionNaut miles runAvg speedWind from/ knotsBaromVisibWave heightAir tempDewpointWater temp
2018-Jun-22 16:00N 49°48' W 001°36'4 3.9 1030.2
2018-Jun-22 15:00N 49°48' W 001°30'7 7.1 1030.4
2018-Jun-22 14:00N 49°42' W 001°24'4 3.9 1030.9
2018-Jun-22 13:00N 49°42' W 001°18'4 3.9 1031.1
2018-Jun-22 12:00N 49°42' W 001°12'8 7.8 1031.2
2018-Jun-22 11:00N 49°42' W 001°00'17 8.4 1031.3
2018-Jun-22 09:00N 49°30' W 000°42'4 3.9 1030.8
2018-Jun-22 08:00N 49°30' W 000°36'7 7.2
2018-Jun-22 07:00N 49°24' W 000°30'8 7.8 1030.3
2018-Jun-22 06:00N 49°24' W 000°18'6 0.4 1030.2
2018-Jun-21 15:00N 49°18' W 000°18'6 6.0 1026.7
2018-Jun-21 14:00N 49°12' W 000°18'4 3.9 1026.3
2018-Jun-21 13:00N 49°12' W 000°24'   1026.0
2018-Jun-18 16:00N 49°12' W 000°24'4 3.9 1023.0
2018-Jun-18 15:00N 49°12' W 000°18'6 6.0 1023.1
2018-Jun-18 14:00N 49°18' W 000°18'4 2.0 1023.5
2018-Jun-18 12:00N 49°18' W 000°12'0 0.0 1023.7
2018-Jun-18 11:00N 49°18' W 000°12'0 0.0 1023.5
2018-Jun-18 10:00N 49°18' W 000°12'4 2.0 1023.0
2018-Jun-18 08:00N 49°18' W 000°18'6 6.0 1022.4
2018-Jun-18 07:00N 49°12' W 000°18'4 3.9 1021.7
2018-Jun-18 06:00N 49°12' W 000°24'   1021.3
2018-Jun-13 16:00N 49°12' W 000°24'7 3.6 1017.9
2018-Jun-13 14:00N 49°18' W 000°18'4 3.9 1018.9
2018-Jun-13 13:00N 49°18' W 000°12'0 0.0 1019.4
2018-Jun-13 12:00N 49°18' W 000°12'0 0.0 1020.1
2018-Jun-13 11:00N 49°18' W 000°12'10 4.9 1020.1
2018-Jun-13 09:00N 49°24' E 000°00'7 7.2 1019.6
2018-Jun-13 08:00N 49°30' E 000°06'0 0.0 1019.8
2018-Jun-13 07:00N 49°30' E 000°06'   1019.7
Track history (hours):
 
Tides and Currents Weather Stations Pressure Air Temp Water Temp Dewpoint Dewpoint Depression Visibility Wind Speed Wind Dir Waves Ship Positions

Callsign TAMOURE (name unknown)

Last reported at 2018-Jun-22 16:00 UTC. Time now 2018-Jun-22 16:44 UTC.
Position N 49°48' W 001°36'.

Barometer 1030.2 mb

Date/timePositionNaut miles runAvg speedWind from/ knotsBaromVisibWave heightAir tempDewpointWater temp
2018-Jun-22 16:00N 49°48' W 001°36'4 3.9 1030.2
2018-Jun-22 15:00N 49°48' W 001°30'7 7.1 1030.4
2018-Jun-22 14:00N 49°42' W 001°24'4 3.9 1030.9
2018-Jun-22 13:00N 49°42' W 001°18'4 3.9 1031.1
2018-Jun-22 12:00N 49°42' W 001°12'8 7.8 1031.2
2018-Jun-22 11:00N 49°42' W 001°00'17 8.4 1031.3
2018-Jun-22 09:00N 49°30' W 000°42'4 3.9 1030.8
2018-Jun-22 08:00N 49°30' W 000°36'7 7.2
2018-Jun-22 07:00N 49°24' W 000°30'8 7.8 1030.3
2018-Jun-22 06:00N 49°24' W 000°18'6 0.4 1030.2
2018-Jun-21 15:00N 49°18' W 000°18'6 6.0 1026.7
2018-Jun-21 14:00N 49°12' W 000°18'4 3.9 1026.3
2018-Jun-21 13:00N 49°12' W 000°24'   1026.0
2018-Jun-18 16:00N 49°12' W 000°24'4 3.9 1023.0
2018-Jun-18 15:00N 49°12' W 000°18'6 6.0 1023.1
2018-Jun-18 14:00N 49°18' W 000°18'4 2.0 1023.5
2018-Jun-18 12:00N 49°18' W 000°12'0 0.0 1023.7
2018-Jun-18 11:00N 49°18' W 000°12'0 0.0 1023.5
2018-Jun-18 10:00N 49°18' W 000°12'4 2.0 1023.0
2018-Jun-18 08:00N 49°18' W 000°18'6 6.0 1022.4
2018-Jun-18 07:00N 49°12' W 000°18'4 3.9 1021.7
2018-Jun-18 06:00N 49°12' W 000°24'   1021.3
2018-Jun-13 16:00N 49°12' W 000°24'7 3.6 1017.9
2018-Jun-13 14:00N 49°18' W 000°18'4 3.9 1018.9
2018-Jun-13 13:00N 49°18' W 000°12'0 0.0 1019.4
2018-Jun-13 12:00N 49°18' W 000°12'0 0.0 1020.1
2018-Jun-13 11:00N 49°18' W 000°12'10 4.9 1020.1
2018-Jun-13 09:00N 49°24' E 000°00'7 7.2 1019.6
2018-Jun-13 08:00N 49°30' E 000°06'0 0.0 1019.8
2018-Jun-13 07:00N 49°30' E 000°06'   1019.7

Dump ship's entire track history